SBU204 TNCM-TFFJ
Flight info
| Callsign | SBU204 |
|---|---|
| Flight time | 0h 9m |
| Altitude | 3000 |
| Route | PJM |
| Aircraft | C208/L-SDFGR/C |
Departure
| Time | 2026-05-03 22:17 |
|---|---|
| Airport | Princess Juliana International Airport (TNCM) |
Arrival
| Time | 2026-05-03 22:26 |
|---|---|
| Airport | St. Jean Airport (TFFJ) |
| Time | Latitude | Longitude | Altitude | Speed | Heading |
|---|---|---|---|---|---|
| 2026-05-03 22:00 | 18.04181 | -63.11208 | 20 ft | 0 kts | 170° |
| 2026-05-03 22:09 | 18.04165 | -63.11207 | 20 ft | 4 kts | 191° |
| 2026-05-03 22:09 | 18.04143 | -63.11228 | 20 ft | 8 kts | 241° |
| 2026-05-03 22:10 | 18.04113 | -63.11291 | 19 ft | 0 kts | 186° |
| 2026-05-03 22:11 | 18.04112 | -63.11291 | 19 ft | 2 kts | 186° |
| 2026-05-03 22:11 | 18.04062 | -63.11290 | 19 ft | 12 kts | 198° |
| 2026-05-03 22:12 | 18.04021 | -63.11394 | 19 ft | 21 kts | 262° |
| 2026-05-03 22:12 | 18.04010 | -63.11538 | 20 ft | 15 kts | 258° |
| 2026-05-03 22:12 | 18.04004 | -63.11525 | 20 ft | 7 kts | 73° |
| 2026-05-03 22:12 | 18.04005 | -63.11517 | 20 ft | 0 kts | 85° |
| 2026-05-03 22:15 | 18.04006 | -63.11507 | 20 ft | 5 kts | 84° |
| 2026-05-03 22:15 | 18.04029 | -63.11347 | 19 ft | 43 kts | 81° |
| 2026-05-03 22:15 | 18.04092 | -63.10928 | 53 ft | 67 kts | 79° |
| 2026-05-03 22:15 | 18.04155 | -63.10426 | 159 ft | 71 kts | 96° |
| 2026-05-03 22:16 | 18.03907 | -63.09976 | 269 ft | 75 kts | 134° |
| 2026-05-03 22:16 | 18.03425 | -63.09722 | 354 ft | 77 kts | 149° |
| 2026-05-03 22:16 | 18.02973 | -63.09453 | 467 ft | 75 kts | 141° |
| 2026-05-03 22:16 | 18.02577 | -63.09134 | 608 ft | 70 kts | 135° |
| 2026-05-03 22:17 | 18.02223 | -63.08763 | 690 ft | 74 kts | 131° |
| 2026-05-03 22:17 | 18.01898 | -63.08375 | 837 ft | 69 kts | 121° |
| 2026-05-03 22:17 | 18.01696 | -63.07907 | 877 ft | 74 kts | 107° |
| 2026-05-03 22:17 | 18.01452 | -63.07407 | 913 ft | 79 kts | 112° |
| 2026-05-03 22:18 | 18.01195 | -63.06865 | 939 ft | 88 kts | 113° |
| 2026-05-03 22:18 | 18.00907 | -63.06263 | 972 ft | 99 kts | 113° |
| 2026-05-03 22:18 | 18.00585 | -63.05592 | 1019 ft | 107 kts | 113° |
| 2026-05-03 22:18 | 18.00256 | -63.04905 | 1155 ft | 104 kts | 113° |
| 2026-05-03 22:19 | 17.99932 | -63.04229 | 1282 ft | 103 kts | 113° |
| 2026-05-03 22:19 | 17.99612 | -63.03558 | 1401 ft | 103 kts | 113° |
| 2026-05-03 22:19 | 17.99282 | -63.02866 | 1453 ft | 110 kts | 113° |
| 2026-05-03 22:19 | 17.98927 | -63.02124 | 1466 ft | 117 kts | 113° |
| 2026-05-03 22:20 | 17.98549 | -63.01334 | 1471 ft | 125 kts | 113° |
| 2026-05-03 22:20 | 17.98151 | -63.00497 | 1471 ft | 130 kts | 113° |
| 2026-05-03 22:20 | 17.97740 | -62.99635 | 1470 ft | 133 kts | 113° |
| 2026-05-03 22:20 | 17.97325 | -62.98766 | 1469 ft | 134 kts | 114° |
| 2026-05-03 22:21 | 17.96907 | -62.97892 | 1469 ft | 134 kts | 114° |
| 2026-05-03 22:21 | 17.96491 | -62.97019 | 1468 ft | 132 kts | 115° |
| 2026-05-03 22:21 | 17.96089 | -62.96182 | 1461 ft | 126 kts | 114° |
| 2026-05-03 22:21 | 17.95703 | -62.95373 | 1453 ft | 122 kts | 114° |
| 2026-05-03 22:22 | 17.95326 | -62.94581 | 1450 ft | 120 kts | 114° |
| 2026-05-03 22:22 | 17.94951 | -62.93799 | 1449 ft | 119 kts | 114° |
| 2026-05-03 22:22 | 17.94589 | -62.93041 | 1449 ft | 113 kts | 112° |
| 2026-05-03 22:22 | 17.94239 | -62.92312 | 1446 ft | 110 kts | 111° |
| 2026-05-03 22:23 | 17.93896 | -62.91594 | 1428 ft | 110 kts | 114° |
| 2026-05-03 22:23 | 17.93438 | -62.90929 | 1334 ft | 115 kts | 124° |
| 2026-05-03 22:23 | 17.92879 | -62.90327 | 1253 ft | 116 kts | 130° |
| 2026-05-03 22:23 | 17.92291 | -62.89742 | 1128 ft | 117 kts | 129° |
| 2026-05-03 22:24 | 17.91719 | -62.89149 | 1031 ft | 114 kts | 128° |
| 2026-05-03 22:24 | 17.91165 | -62.88554 | 894 ft | 114 kts | 124° |
| 2026-05-03 22:24 | 17.90706 | -62.87951 | 854 ft | 96 kts | 117° |
| 2026-05-03 22:24 | 17.90391 | -62.87419 | 812 ft | 75 kts | 103° |
| 2026-05-03 22:25 | 17.90359 | -62.86909 | 683 ft | 69 kts | 82° |
| 2026-05-03 22:25 | 17.90355 | -62.86425 | 604 ft | 64 kts | 84° |
| 2026-05-03 22:25 | 17.90368 | -62.85986 | 525 ft | 60 kts | 78° |
| 2026-05-03 22:25 | 17.90404 | -62.85559 | 393 ft | 58 kts | 79° |
| 2026-05-03 22:26 | 17.90424 | -62.85121 | 258 ft | 62 kts | 82° |
| 2026-05-03 22:26 | 17.90431 | -62.84672 | 133 ft | 64 kts | 85° |
| 2026-05-03 22:26 | 17.90440 | -62.84241 | 28 ft | 36 kts | 85° |
| 2026-05-03 22:26 | 17.90448 | -62.84094 | 16 ft | 9 kts | 78° |
| 2026-05-03 22:27 | 17.90443 | -62.84078 | 15 ft | 10 kts | 268° |
| 2026-05-03 22:27 | 17.90442 | -62.84168 | 22 ft | 15 kts | 268° |
| 2026-05-03 22:27 | 17.90440 | -62.84290 | 31 ft | 19 kts | 268° |
| 2026-05-03 22:27 | 17.90423 | -62.84385 | 37 ft | 9 kts | 198° |
| 2026-05-03 22:28 | 17.90393 | -62.84438 | 41 ft | 12 kts | 270° |
| 2026-05-03 22:28 | 17.90391 | -62.84540 | 48 ft | 10 kts | 267° |
| 2026-05-03 22:28 | 17.90380 | -62.84584 | 51 ft | 6 kts | 234° |
| 2026-05-03 22:28 | 17.90366 | -62.84583 | 51 ft | 0 kts | 28° |
| 2026-05-03 22:29 | 17.90367 | -62.84582 | 51 ft | 0 kts | 29° |
| 2026-05-03 22:41 | 17.90395 | -62.85666 | 383 ft | 59 kts | 78° |
| 2026-05-03 22:41 | 17.90753 | -62.88019 | 859 ft | 98 kts | 118° |
| 2026-05-03 22:41 | 17.90415 | -62.87479 | 816 ft | 77 kts | 108° |
| 2026-05-03 22:41 | 17.90357 | -62.86962 | 701 ft | 69 kts | 81° |
| 2026-05-03 22:42 | 17.90356 | -62.86475 | 614 ft | 64 kts | 85° |
| 2026-05-03 22:42 | 17.90366 | -62.86033 | 538 ft | 59 kts | 78° |
| 2026-05-03 22:42 | 17.90400 | -62.85604 | 406 ft | 58 kts | 80° |
| 2026-05-03 22:42 | 17.90426 | -62.85169 | 280 ft | 61 kts | 85° |
| 2026-05-03 22:43 | 17.90432 | -62.84722 | 155 ft | 64 kts | 84° |
| 2026-05-03 22:43 | 17.90440 | -62.84272 | 30 ft | 45 kts | 90° |
| 2026-05-03 22:43 | 17.90447 | -62.84102 | 17 ft | 11 kts | 80° |
| 2026-05-03 22:43 | 17.90444 | -62.84071 | 14 ft | 9 kts | 258° |
| 2026-05-03 22:44 | 17.90442 | -62.84157 | 21 ft | 14 kts | 268° |
| 2026-05-03 22:44 | 17.90440 | -62.84275 | 30 ft | 18 kts | 268° |
| 2026-05-03 22:44 | 17.90430 | -62.84381 | 37 ft | 9 kts | 219° |
| 2026-05-03 22:44 | 17.90393 | -62.84410 | 39 ft | 11 kts | 265° |
| 2026-05-03 22:45 | 17.90392 | -62.84505 | 46 ft | 15 kts | 269° |
| 2026-05-03 22:45 | 17.90447 | -62.84156 | 21 ft | 26 kts | 89° |
| 2026-05-03 22:45 | 17.90397 | -62.85638 | 417 ft | 58 kts | 79° |
| 2026-05-03 22:45 | 17.90426 | -62.85206 | 301 ft | 62 kts | 83° |
| 2026-05-03 22:46 | 17.90434 | -62.84760 | 168 ft | 62 kts | 86° |
| 2026-05-03 22:46 | 17.90437 | -62.84817 | 188 ft | 61 kts | 90° |
| 2026-05-03 22:46 | 17.90426 | -62.85169 | 280 ft | 61 kts | 85° |
| 2026-05-03 22:46 | 17.90433 | -62.84735 | 160 ft | 63 kts | 84° |
| 2026-05-03 22:47 | 17.90440 | -62.84281 | 31 ft | 47 kts | 86° |
| 2026-05-03 22:47 | 17.90447 | -62.84104 | 17 ft | 12 kts | 81° |
| 2026-05-03 22:47 | 17.90444 | -62.84069 | 14 ft | 9 kts | 250° |
| 2026-05-03 22:47 | 17.90442 | -62.84155 | 21 ft | 14 kts | 268° |
| 2026-05-03 22:48 | 17.90440 | -62.84272 | 30 ft | 18 kts | 268° |
| 2026-05-03 22:48 | 17.90437 | -62.84817 | 188 ft | 61 kts | 90° |
| 2026-05-03 22:48 | 17.90433 | -62.84746 | 164 ft | 63 kts | 84° |
| 2026-05-03 22:48 | 17.90440 | -62.84290 | 32 ft | 50 kts | 85° |
| 2026-05-03 22:49 | 17.90446 | -62.84106 | 17 ft | 12 kts | 84° |
| 2026-05-03 22:49 | 17.90434 | -62.84968 | 217 ft | 61 kts | 82° |
| 2026-05-03 22:49 | 17.90436 | -62.84510 | 63 ft | 64 kts | 84° |
| 2026-05-03 22:49 | 17.90446 | -62.84168 | 22 ft | 26 kts | 89° |
| 2026-05-03 22:50 | 17.90457 | -62.84079 | 15 ft | 6 kts | 54° |
| 2026-05-03 22:50 | 17.90443 | -62.84105 | 17 ft | 12 kts | 272° |
| 2026-05-03 22:50 | 17.90441 | -62.84205 | 27 ft | 16 kts | 269° |
| 2026-05-03 22:50 | 17.90438 | -62.84337 | 34 ft | 20 kts | 267° |
| 2026-05-03 22:51 | 17.90404 | -62.84390 | 38 ft | 9 kts | 202° |
| 2026-05-03 22:51 | 17.90392 | -62.84470 | 43 ft | 14 kts | 269° |
| 2026-05-03 22:51 | 17.90389 | -62.84562 | 50 ft | 7 kts | 263° |
| 2026-05-03 22:51 | 17.90371 | -62.84592 | 51 ft | 4 kts | 202° |
| 2026-05-03 22:52 | 17.90367 | -62.84582 | 50 ft | 1 kts | 28° |